Terminal Aerodrome Forecast
Issued by NWS Twin Cities, MN

Home | Current Version | Previous Version | Text Only | Print | Product List | Glossary Off
Versions: 1 2 3 4 5 6 7 8 9 10 11 12 13 14 15 16 17 18 19 20 21 22 23 24 25

000
FTUS43 KMPX 301450 AAA
TAFMSP
TAF AMD
KMSP 301450Z 3015/0118 08006KT P6SM FEW200
     FM010200 14006KT P6SM SCT200
     FM010900 17005KT P6SM BKN150
     FM011400 20008KT P6SM VCSH OVC080=

USA.gov is the U.S. government's official web portal to all federal, state and local government web resources and services.